createdAt,value
2023-05-19T00:00:02.058Z,0
2023-05-19T00:01:01.332Z,0
2023-05-19T00:02:03.516Z,0
2023-05-19T00:03:02.370Z,0
2023-05-19T00:04:01.690Z,0
2023-05-19T00:05:03.809Z,0
2023-05-19T00:06:01.668Z,0
2023-05-19T00:07:03.692Z,0
2023-05-19T00:08:01.498Z,0
2023-05-19T00:09:03.572Z,0
2023-05-19T00:10:02.988Z,0
2023-05-19T00:11:03.424Z,0
2023-05-19T00:12:02.204Z,0
2023-05-19T00:13:03.272Z,0
2023-05-19T00:14:02.099Z,0
2023-05-19T00:15:01.533Z,0
2023-05-19T00:16:02.066Z,0
2023-05-19T00:17:01.443Z,0.6
2023-05-19T00:18:03.564Z,0.24
2023-05-19T00:19:03.041Z,0
2023-05-19T00:20:03.444Z,0
2023-05-19T00:21:03.878Z,0
2023-05-19T00:22:03.308Z,0.28
2023-05-19T00:23:02.105Z,0.08
2023-05-19T00:24:03.241Z,0
2023-05-19T00:25:03.656Z,0
2023-05-19T00:26:03.101Z,0
2023-05-19T00:27:01.924Z,0
2023-05-19T00:28:01.344Z,0
2023-05-19T00:29:01.763Z,0
2023-05-19T00:30:01.257Z,0.84
2023-05-19T00:31:01.681Z,0.84
2023-05-19T00:32:02.227Z,0.64
2023-05-19T00:33:01.614Z,0
2023-05-19T00:34:03.716Z,0
2023-05-19T00:35:01.476Z,0
2023-05-19T00:36:01.997Z,0
2023-05-19T00:37:01.462Z,0
2023-05-19T00:38:01.890Z,0
2023-05-19T00:39:02.925Z,0
2023-05-19T00:40:01.815Z,0
2023-05-19T00:41:02.903Z,0
2023-05-19T00:42:03.347Z,0
2023-05-19T00:43:03.803Z,0
2023-05-19T00:44:03.253Z,0
2023-05-19T00:45:03.664Z,0
2023-05-19T00:46:03.112Z,0
2023-05-19T00:47:02.114Z,0
2023-05-19T00:48:01.437Z,0
2023-05-19T00:49:01.868Z,0
2023-05-19T00:50:02.924Z,0
2023-05-19T00:51:03.427Z,0
2023-05-19T00:52:03.811Z,0
2023-05-19T00:53:01.617Z,0
2023-05-19T00:54:03.707Z,0
2023-05-19T00:55:01.501Z,0
2023-05-19T00:56:02.023Z,0
2023-05-19T00:57:03.053Z,0
2023-05-19T00:58:01.857Z,0
2023-05-19T00:59:01.306Z,0
2023-05-19T01:00:01.770Z,0
2023-05-19T01:01:02.347Z,0
2023-05-19T01:02:01.661Z,0
2023-05-19T01:03:03.808Z,0
2023-05-19T01:04:03.264Z,0
2023-05-19T01:05:01.953Z,0
2023-05-19T01:06:03.050Z,0
2023-05-19T01:07:01.860Z,0
2023-05-19T01:08:02.892Z,0
2023-05-19T01:09:03.375Z,0
2023-05-19T01:10:02.122Z,0
2023-05-19T01:11:01.586Z,0
2023-05-19T01:12:03.654Z,0
2023-05-19T01:13:01.460Z,0
2023-05-19T01:14:01.874Z,0
2023-05-19T01:15:01.364Z,0
2023-05-19T01:16:03.472Z,0
2023-05-19T01:17:02.214Z,0
2023-05-19T01:18:03.325Z,0
2023-05-19T01:19:02.269Z,0
2023-05-19T01:20:03.175Z,0
2023-05-19T01:21:01.990Z,0
2023-05-19T01:22:03.049Z,0
2023-05-19T01:23:01.822Z,0
2023-05-19T01:24:01.306Z,0
2023-05-19T01:25:01.729Z,0
2023-05-19T01:26:03.847Z,0
2023-05-19T01:27:03.273Z,0
2023-05-19T01:28:03.700Z,0
2023-05-19T01:29:01.523Z,0
2023-05-19T01:30:03.595Z,0
2023-05-19T01:31:02.983Z,0
2023-05-19T01:32:01.861Z,0
2023-05-19T01:34:01.739Z,0
2023-05-19T01:35:03.798Z,0
2023-05-19T01:36:01.704Z,0
2023-05-19T01:37:03.713Z,0
2023-05-19T01:38:01.471Z,0
2023-05-19T01:39:01.914Z,0
2023-05-19T01:40:03.026Z,0
2023-05-19T01:41:01.829Z,0
2023-05-19T01:42:01.278Z,0
2023-05-19T01:43:01.699Z,0
2023-05-19T01:44:03.792Z,0
2023-05-19T01:45:01.598Z,0
2023-05-19T01:46:03.718Z,0
2023-05-19T01:47:03.148Z,0
2023-05-19T01:48:03.592Z,0
2023-05-19T01:49:01.339Z,0
2023-05-19T01:50:03.447Z,0
2023-05-19T01:51:03.997Z,0
2023-05-19T01:52:01.676Z,0
2023-05-19T01:53:02.139Z,0
2023-05-19T01:54:03.188Z,0
2023-05-19T01:55:03.614Z,0
2023-05-19T01:56:03.034Z,0
2023-05-19T01:57:03.480Z,0
2023-05-19T01:59:03.370Z,0
2023-05-19T02:00:02.190Z,0
2023-05-19T02:01:03.280Z,0
2023-05-19T02:02:03.675Z,0
2023-05-19T02:03:03.224Z,0
2023-05-19T02:04:01.953Z,0
2023-05-19T02:05:01.380Z,0
2023-05-19T02:06:01.832Z,0
2023-05-19T02:07:01.279Z,0
2023-05-19T02:08:03.366Z,0
2023-05-19T02:09:03.801Z,0
2023-05-19T02:10:03.250Z,0
2023-05-19T02:11:03.671Z,0
2023-05-19T02:12:01.475Z,0
2023-05-19T02:13:03.568Z,0
2023-05-19T02:14:01.397Z,0
2023-05-19T02:15:03.510Z,0
2023-05-19T02:17:01.736Z,0
2023-05-19T02:18:02.210Z,0
2023-05-19T02:19:01.739Z,0
2023-05-19T02:20:03.705Z,0
2023-05-19T02:21:01.482Z,0
2023-05-19T02:22:01.957Z,0
2023-05-19T02:23:01.379Z,0
2023-05-19T02:24:01.894Z,0
2023-05-19T02:25:01.281Z,0
2023-05-19T02:26:03.369Z,0
2023-05-19T02:27:02.161Z,0
2023-05-19T02:28:01.612Z,0
2023-05-19T02:29:02.101Z,0
2023-05-19T02:30:03.151Z,0
2023-05-19T02:31:03.591Z,0
2023-05-19T02:32:01.532Z,0
2023-05-19T02:33:02.078Z,0
2023-05-19T02:34:03.095Z,0
2023-05-19T02:35:01.885Z,0
2023-05-19T02:36:01.334Z,0
2023-05-19T02:37:03.397Z,0
2023-05-19T02:38:03.869Z,0
2023-05-19T02:39:01.624Z,0
2023-05-19T02:40:02.112Z,0
2023-05-19T02:41:03.173Z,0
2023-05-19T02:42:03.649Z,0
2023-05-19T02:43:03.058Z,0
2023-05-19T02:44:01.835Z,0
2023-05-19T02:45:01.269Z,0
2023-05-19T02:46:01.775Z,0
2023-05-19T02:47:03.849Z,0
2023-05-19T02:48:01.612Z,0
2023-05-19T02:49:03.753Z,0
2023-05-19T02:50:03.123Z,0
2023-05-19T02:51:01.942Z,0
2023-05-19T02:52:03.025Z,0
2023-05-19T02:53:01.837Z,0
2023-05-19T02:54:01.291Z,0
2023-05-19T02:55:01.712Z,0
2023-05-19T02:56:03.817Z,0
2023-05-19T02:57:01.580Z,0
2023-05-19T02:58:02.073Z,0
2023-05-19T02:59:01.489Z,0
2023-05-19T03:00:03.676Z,0
2023-05-19T03:01:03.024Z,0
2023-05-19T03:02:01.968Z,0
2023-05-19T03:03:01.305Z,0
2023-05-19T03:04:03.546Z,0
2023-05-19T03:05:03.847Z,0
2023-05-19T03:06:01.646Z,0
2023-05-19T03:07:03.780Z,0
2023-05-19T03:08:02.092Z,0
2023-05-19T03:09:01.514Z,0
2023-05-19T03:10:01.942Z,0
2023-05-19T03:11:01.412Z,0
2023-05-19T03:12:01.862Z,0
2023-05-19T03:13:03.002Z,0
2023-05-19T03:14:01.797Z,0
2023-05-19T03:15:03.880Z,0
2023-05-19T03:16:01.755Z,0
2023-05-19T03:17:03.831Z,0
2023-05-19T03:18:03.256Z,0
2023-05-19T03:19:02.082Z,0
2023-05-19T03:20:03.139Z,0
2023-05-19T03:21:01.968Z,0
2023-05-19T03:22:03.030Z,0
2023-05-19T03:23:01.818Z,0
2023-05-19T03:24:02.868Z,0
2023-05-19T03:25:01.722Z,0
2023-05-19T03:26:03.850Z,0
2023-05-19T03:27:03.257Z,0
2023-05-19T03:28:02.014Z,0
2023-05-19T03:29:03.164Z,0
2023-05-19T03:30:06.317Z,0
2023-05-19T03:31:01.376Z,0
2023-05-19T03:32:01.940Z,0
2023-05-19T03:33:03.060Z,0
2023-05-19T03:34:01.743Z,0
2023-05-19T03:35:03.831Z,0
2023-05-19T03:36:01.594Z,0
2023-05-19T03:37:02.083Z,0
2023-05-19T03:38:01.532Z,0
2023-05-19T03:39:02.000Z,0
2023-05-19T03:40:01.431Z,0
2023-05-19T03:41:03.539Z,0
2023-05-19T03:42:01.344Z,0
2023-05-19T03:43:01.788Z,0
2023-05-19T03:44:02.245Z,0
2023-05-19T03:45:01.670Z,0
2023-05-19T03:46:02.310Z,0
2023-05-19T03:47:03.243Z,0
2023-05-19T03:48:03.697Z,0
2023-05-19T03:49:03.112Z,0
2023-05-19T03:50:03.547Z,0
2023-05-19T03:51:01.357Z,0
2023-05-19T03:52:01.784Z,0
2023-05-19T03:53:03.898Z,0
2023-05-19T03:54:01.694Z,0
2023-05-19T03:55:02.140Z,0
2023-05-19T03:56:01.635Z,0
2023-05-19T03:57:02.055Z,0
2023-05-19T03:58:03.128Z,0
2023-05-19T03:59:03.565Z,0
2023-05-19T04:00:01.354Z,0
2023-05-19T04:01:01.824Z,0
2023-05-19T04:03:03.519Z,0
2023-05-19T04:04:02.181Z,0
2023-05-19T04:05:03.239Z,0
2023-05-19T04:06:02.072Z,0
2023-05-19T04:07:01.485Z,0
2023-05-19T04:08:03.524Z,0
2023-05-19T04:09:02.986Z,0
2023-05-19T04:10:01.789Z,0
2023-05-19T04:11:03.858Z,0
2023-05-19T04:12:03.349Z,0
2023-05-19T04:13:02.145Z,0
2023-05-19T04:14:01.547Z,0
2023-05-19T04:15:03.680Z,0
2023-05-19T04:16:01.475Z,0
2023-05-19T04:17:03.586Z,0
2023-05-19T04:18:01.474Z,0
2023-05-19T04:19:03.496Z,0
2023-05-19T04:20:02.813Z,0
2023-05-19T04:21:01.692Z,0
2023-05-19T04:22:02.159Z,0
2023-05-19T04:23:01.714Z,0
2023-05-19T04:24:03.656Z,0
2023-05-19T04:25:01.511Z,0.72
2023-05-19T04:26:02.037Z,0.64
2023-05-19T04:27:01.376Z,0
2023-05-19T04:28:03.488Z,0
2023-05-19T04:29:03.850Z,0
2023-05-19T04:30:03.318Z,0
2023-05-19T04:31:02.218Z,0
2023-05-19T04:32:01.567Z,0
2023-05-19T04:33:03.743Z,0
2023-05-19T04:34:01.454Z,0
2023-05-19T04:35:01.889Z,0
2023-05-19T04:36:03.001Z,0
2023-05-19T04:37:01.789Z,0
2023-05-19T04:38:03.858Z,0
2023-05-19T04:39:01.673Z,0
2023-05-19T04:40:03.771Z,0
2023-05-19T04:41:01.517Z,0
2023-05-19T04:42:03.641Z,0
2023-05-19T04:43:01.436Z,0
2023-05-19T04:44:01.905Z,0
2023-05-19T04:45:01.293Z,0
2023-05-19T04:46:03.410Z,0
2023-05-19T04:47:04.014Z,0
2023-05-19T04:48:01.661Z,0
2023-05-19T04:49:02.091Z,0
2023-05-19T04:50:03.178Z,0
2023-05-19T04:51:01.972Z,0
2023-05-19T04:52:03.179Z,0
2023-05-19T04:53:01.887Z,0
2023-05-19T04:54:01.272Z,0
2023-05-19T04:55:03.367Z,0
2023-05-19T04:56:03.830Z,0
2023-05-19T04:57:01.600Z,0
2023-05-19T04:58:02.056Z,0
2023-05-19T04:59:01.472Z,0
2023-05-19T05:00:03.786Z,0
2023-05-19T05:01:01.368Z,0
2023-05-19T05:02:03.521Z,0
2023-05-19T05:03:03.941Z,0
2023-05-19T05:04:01.699Z,0
2023-05-19T05:05:02.110Z,0
2023-05-19T05:06:01.578Z,0
2023-05-19T05:07:03.667Z,0
2023-05-19T05:08:03.089Z,0
2023-05-19T05:09:03.532Z,0
2023-05-19T05:10:02.920Z,0
2023-05-19T05:11:01.786Z,0
2023-05-19T05:12:02.205Z,0
2023-05-19T05:13:03.317Z,0
2023-05-19T05:14:02.096Z,0
2023-05-19T05:15:01.567Z,0
2023-05-19T05:16:02.064Z,0
2023-05-19T05:17:01.463Z,0
2023-05-19T05:18:02.101Z,0
2023-05-19T05:19:03.054Z,0.92
2023-05-19T05:20:01.788Z,0.04
2023-05-19T05:21:03.869Z,0
2023-05-19T05:22:03.298Z,0
2023-05-19T05:23:02.063Z,0
2023-05-19T05:24:03.154Z,0
2023-05-19T05:25:01.942Z,0
2023-05-19T05:26:01.402Z,0
2023-05-19T05:27:03.506Z,0
2023-05-19T05:28:01.286Z,0
2023-05-19T05:29:01.720Z,0
2023-05-19T05:30:03.823Z,0.44
2023-05-19T05:31:03.239Z,0.24
2023-05-19T05:32:03.742Z,0
2023-05-19T05:33:03.148Z,0
2023-05-19T05:34:03.523Z,0
2023-05-19T05:35:02.950Z,0.24
2023-05-19T05:36:03.397Z,0.2
2023-05-19T05:37:02.180Z,0.4
2023-05-19T05:38:01.604Z,0.44
2023-05-19T05:39:02.049Z,0
2023-05-19T05:40:03.127Z,0.24
2023-05-19T05:41:01.952Z,0.08
2023-05-19T05:42:01.419Z,0.48
2023-05-19T05:43:03.459Z,0.16
2023-05-19T05:44:01.278Z,0
2023-05-19T05:45:01.717Z,0
2023-05-19T05:46:03.896Z,0
2023-05-19T05:47:01.618Z,0
2023-05-19T05:48:03.700Z,0.48
2023-05-19T05:49:03.115Z,0.52
2023-05-19T05:50:01.952Z,0.16
2023-05-19T05:51:03.020Z,0.04
2023-05-19T05:52:06.278Z,0.6
2023-05-19T05:54:01.752Z,0
2023-05-19T05:55:02.208Z,0
2023-05-19T05:56:03.270Z,0.24
2023-05-19T05:57:02.079Z,1.08
2023-05-19T05:58:01.523Z,1.08
2023-05-19T05:59:03.653Z,0.08
2023-05-19T06:00:03.062Z,0
2023-05-19T06:01:01.893Z,0.64
2023-05-19T06:02:03.014Z,0.68
2023-05-19T06:03:03.476Z,0.04
2023-05-19T06:04:03.868Z,0
2023-05-19T06:05:03.315Z,0
2023-05-19T06:06:02.144Z,0
2023-05-19T06:07:03.111Z,0
2023-05-19T06:08:03.570Z,0
2023-05-19T06:09:01.383Z,0
2023-05-19T06:10:03.500Z,0
2023-05-19T06:11:03.882Z,0
2023-05-19T06:12:03.356Z,0
2023-05-19T06:13:02.126Z,0.36
2023-05-19T06:14:01.564Z,0.92
2023-05-19T06:15:01.996Z,0.16
2023-05-19T06:16:02.298Z,1.32
2023-05-19T06:17:01.912Z,0.16
2023-05-19T06:18:03.010Z,0.72
2023-05-19T06:19:01.829Z,0.28
2023-05-19T06:21:01.706Z,0
2023-05-19T06:22:03.836Z,0
2023-05-19T06:23:03.253Z,1
2023-05-19T06:24:03.701Z,0.88
2023-05-19T06:25:01.471Z,0.08
2023-05-19T06:26:01.963Z,0.04
2023-05-19T06:27:03.017Z,1.28
2023-05-19T06:28:01.838Z,1.28
2023-05-19T06:29:01.281Z,0
2023-05-19T06:30:03.383Z,0.92
2023-05-19T06:31:03.867Z,2.04
2023-05-19T06:32:03.245Z,1.6
2023-05-19T06:33:02.049Z,2.12
2023-05-19T06:34:01.465Z,2.04
2023-05-19T06:35:01.981Z,1.64
2023-05-19T06:36:03.034Z,1.32
2023-05-19T06:37:03.523Z,1.4
2023-05-19T06:38:01.283Z,1.64
2023-05-19T06:39:03.364Z,0.68
2023-05-19T06:40:02.188Z,1.88
2023-05-19T06:41:01.613Z,1.2
2023-05-19T06:42:03.793Z,1.4
2023-05-19T06:43:01.528Z,0.8
2023-05-19T06:44:01.968Z,0
2023-05-19T06:45:01.459Z,0.4
2023-05-19T06:46:01.913Z,1.48
2023-05-19T06:47:01.344Z,1.56
2023-05-19T06:48:01.898Z,0.64
2023-05-19T06:50:03.312Z,0.24
2023-05-19T06:51:02.162Z,0.4
2023-05-19T06:52:01.646Z,0
2023-05-19T06:53:02.091Z,0.64
2023-05-19T06:54:03.177Z,1.2
2023-05-19T06:55:01.955Z,0.68
2023-05-19T06:56:03.028Z,1.04
2023-05-19T06:57:01.843Z,0.52
2023-05-19T06:58:01.311Z,0.56
2023-05-19T06:59:03.377Z,0
2023-05-19T07:00:03.834Z,0.4
2023-05-19T07:01:01.635Z,1
2023-05-19T07:02:02.097Z,0.68
2023-05-19T07:03:03.289Z,0.52
2023-05-19T07:04:03.752Z,0.2
2023-05-19T07:05:01.440Z,0.76
2023-05-19T07:06:01.875Z,1.16
2023-05-19T07:07:01.343Z,1.08
2023-05-19T07:08:01.763Z,0.88
2023-05-19T07:09:02.243Z,0.88
2023-05-19T07:10:01.683Z,1.16
2023-05-19T07:11:02.145Z,1.08
2023-05-19T07:12:01.577Z,1.2
2023-05-19T07:13:03.639Z,0.84
2023-05-19T07:14:03.069Z,0.88
2023-05-19T07:15:03.469Z,1.76
2023-05-19T07:16:02.928Z,1.04
2023-05-19T07:17:03.348Z,1
2023-05-19T07:18:03.787Z,1.88
2023-05-19T07:19:03.235Z,1.28
2023-05-19T07:20:01.981Z,1.08
2023-05-19T07:21:03.088Z,0.92
2023-05-19T07:22:01.893Z,0.6
2023-05-19T07:23:01.320Z,0.88
2023-05-19T07:24:03.385Z,1.68
2023-05-19T07:25:02.248Z,2.12
2023-05-19T07:26:03.349Z,1.68
2023-05-19T07:27:03.797Z,2.12
2023-05-19T07:28:03.231Z,1.24
2023-05-19T07:29:03.685Z,2.32
2023-05-19T07:30:01.475Z,2.24
2023-05-19T07:31:01.891Z,1.24
2023-05-19T07:32:03.073Z,1.84
2023-05-19T07:33:03.447Z,1.56
2023-05-19T07:34:03.882Z,1.32
2023-05-19T07:35:01.670Z,1.8
2023-05-19T07:36:03.772Z,1.72
2023-05-19T07:37:03.206Z,2.12
2023-05-19T07:38:03.654Z,2.52
2023-05-19T07:39:03.092Z,2.68
2023-05-19T07:40:03.522Z,2.2
2023-05-19T07:41:01.428Z,2.56
2023-05-19T07:42:03.427Z,2.52
2023-05-19T07:43:02.182Z,1.96
2023-05-19T07:44:03.295Z,2.04
2023-05-19T07:45:02.119Z,3
2023-05-19T07:46:01.577Z,1.12
2023-05-19T07:47:03.608Z,2.28
2023-05-19T07:48:03.090Z,0.8
2023-05-19T07:49:01.801Z,2.2
2023-05-19T07:51:01.769Z,1.64
2023-05-19T07:52:02.187Z,2.12
2023-05-19T07:53:01.631Z,1.56
2023-05-19T07:54:02.064Z,1.6
2023-05-19T07:55:03.132Z,1.73
2023-05-19T07:56:03.590Z,1.76
2023-05-19T07:57:03.002Z,1.64
2023-05-19T07:58:03.442Z,1.6
2023-05-19T07:59:02.230Z,1.44
2023-05-19T08:00:01.689Z,3.52
2023-05-19T08:01:03.808Z,2.04
2023-05-19T08:02:03.253Z,1.6
2023-05-19T08:03:03.755Z,2.24
2023-05-19T08:04:03.270Z,1.04
2023-05-19T08:05:01.881Z,1.76
2023-05-19T08:06:02.953Z,0.67
2023-05-19T08:07:01.753Z,1.68
2023-05-19T08:08:02.197Z,0.92
2023-05-19T08:09:03.194Z,1.32
2023-05-19T08:10:02.050Z,2.52
2023-05-19T08:11:03.126Z,3.2
2023-05-19T08:12:01.932Z,1.64
2023-05-19T08:13:01.351Z,2.28
2023-05-19T08:14:03.463Z,2.12
2023-05-19T08:15:02.272Z,1.44
2023-05-19T08:16:01.756Z,2.32
2023-05-19T08:17:03.829Z,2.44
2023-05-19T08:18:03.282Z,2.04
2023-05-19T08:19:02.014Z,2.72
2023-05-19T08:20:01.390Z,1.64
2023-05-19T08:23:02.428Z,0
2023-05-19T08:24:03.019Z,1.44
2023-05-19T08:25:01.942Z,1.44
2023-05-19T08:26:03.103Z,1.92
2023-05-19T08:27:01.949Z,2.24
2023-05-19T08:28:03.100Z,1.4
2023-05-19T08:29:02.008Z,1.72
2023-05-19T08:30:03.218Z,2.64
2023-05-19T08:31:02.127Z,1.28
2023-05-19T08:32:03.287Z,1.36
2023-05-19T08:33:03.811Z,1.8
2023-05-19T08:34:03.353Z,2.4
2023-05-19T08:35:02.221Z,2.12
2023-05-19T08:36:01.769Z,1.72
2023-05-19T08:38:01.853Z,1.64
2023-05-19T08:39:03.082Z,2.12
2023-05-19T08:40:03.564Z,1.36
2023-05-19T08:41:01.450Z,2.56
2023-05-19T08:42:03.610Z,1.92
2023-05-19T08:43:01.532Z,1.48
2023-05-19T08:44:02.110Z,2
2023-05-19T08:45:01.641Z,1.4
2023-05-19T08:46:02.183Z,1.44
2023-05-19T08:47:03.558Z,1.88
2023-05-19T08:48:02.248Z,1.04
2023-05-19T08:49:01.754Z,2.08
2023-05-19T08:51:03.483Z,2.4
2023-05-19T08:52:01.331Z,3.16
2023-05-19T08:53:03.551Z,1.88
2023-05-19T08:54:01.403Z,1.96
2023-05-19T08:55:03.529Z,2.6
2023-05-19T08:56:01.324Z,2.8
2023-05-19T08:57:01.854Z,1.84
2023-05-19T08:59:03.389Z,1.92
2023-05-19T09:00:03.843Z,1.4
2023-05-19T09:01:03.384Z,2.28
2023-05-19T09:02:03.770Z,2.36
2023-05-19T09:04:03.817Z,1.92
2023-05-19T09:05:01.651Z,1.64
2023-05-19T09:06:03.619Z,1.72
2023-05-19T09:07:01.417Z,2.24
2023-05-19T09:08:02.054Z,1.76
2023-05-19T09:09:03.032Z,2.12
2023-05-19T09:10:01.787Z,2.32
2023-05-19T09:11:03.921Z,1.76
2023-05-19T09:12:03.389Z,2.6
2023-05-19T09:13:03.846Z,2.2
2023-05-19T09:14:03.246Z,3.48
2023-05-19T09:15:02.048Z,1.16
2023-05-19T09:16:03.149Z,1.6
2023-05-19T09:17:02.034Z,2.36
2023-05-19T09:18:01.481Z,3.08
2023-05-19T09:19:03.662Z,2.52
2023-05-19T09:20:03.030Z,1.28
2023-05-19T09:21:01.833Z,1.4
2023-05-19T09:23:03.401Z,1.4
2023-05-19T09:24:03.870Z,0.76
2023-05-19T09:25:03.410Z,1.48
2023-05-19T09:26:02.230Z,1.88
2023-05-19T09:27:02.204Z,1.8
2023-05-19T09:28:02.615Z,0.72
2023-05-19T09:29:03.373Z,1.4
2023-05-19T09:30:03.876Z,2.72
2023-05-19T09:31:03.374Z,2.52
2023-05-19T09:32:02.319Z,1.44
2023-05-19T09:33:01.911Z,2.44
2023-05-19T09:34:03.034Z,0.16
2023-05-19T09:35:03.580Z,1.72
2023-05-19T09:36:01.419Z,2.92
2023-05-19T09:37:03.559Z,2.32
2023-05-19T09:38:01.461Z,1.36
2023-05-19T09:39:02.013Z,1.28
2023-05-19T09:40:01.552Z,1.68
2023-05-19T09:41:03.717Z,2.08
2023-05-19T09:42:03.216Z,2.48
2023-05-19T09:43:03.818Z,2.24
2023-05-19T09:44:01.648Z,1.84
2023-05-19T09:45:03.875Z,2.08
2023-05-19T09:46:01.876Z,1.32
2023-05-19T09:47:02.938Z,1.2
2023-05-19T09:48:01.810Z,1.84
2023-05-19T09:49:01.365Z,2.12
2023-05-19T09:50:01.875Z,0.92
2023-05-19T09:51:01.419Z,1.64
2023-05-19T09:52:03.655Z,2.44
2023-05-19T09:53:03.081Z,1.2
2023-05-19T09:54:03.629Z,1.76
2023-05-19T09:55:01.535Z,2.08
2023-05-19T09:56:03.793Z,1.72
2023-05-19T09:57:03.257Z,2.44
2023-05-19T09:58:03.810Z,1.52
2023-05-19T09:59:01.652Z,2.6
2023-05-19T10:00:02.784Z,2.32
2023-05-19T10:01:01.741Z,1.88
2023-05-19T10:02:03.743Z,2.96
2023-05-19T10:03:01.519Z,3.34
2023-05-19T10:04:03.700Z,2.44
2023-05-19T10:05:01.757Z,2.28
2023-05-19T10:06:03.741Z,2.8
2023-05-19T10:07:01.323Z,1.16
2023-05-19T10:08:01.779Z,1.16
2023-05-19T10:09:02.210Z,2.76
2023-05-19T10:10:01.697Z,1.96
2023-05-19T10:11:03.748Z,1.44
2023-05-19T10:12:01.623Z,0.92
2023-05-19T10:13:03.757Z,0.72
2023-05-19T10:14:01.536Z,2.36
2023-05-19T10:15:02.014Z,2.2
2023-05-19T10:16:03.463Z,2.56
2023-05-19T10:17:02.129Z,1.32
2023-05-19T10:18:01.441Z,3.96
2023-05-19T10:19:03.503Z,1.8
2023-05-19T10:20:02.417Z,2.4
2023-05-19T10:21:03.402Z,2
2023-05-19T10:22:02.209Z,3.2
2023-05-19T10:23:01.663Z,2.36
2023-05-19T10:24:02.150Z,2.28
2023-05-19T10:25:01.623Z,1.6
2023-05-19T10:26:03.767Z,1.52
2023-05-19T10:27:03.188Z,1.88
2023-05-19T10:28:02.037Z,2.32
2023-05-19T10:29:01.489Z,1.96
2023-05-19T10:30:01.971Z,1.56
2023-05-19T10:31:03.042Z,2.44
2023-05-19T10:32:03.509Z,1.92
2023-05-19T10:33:01.416Z,2.26
2023-05-19T10:34:01.880Z,2.64
2023-05-19T10:35:01.434Z,1.88
2023-05-19T10:36:02.560Z,2.08
2023-05-19T10:37:03.053Z,2.54
2023-05-19T10:38:03.473Z,1.44
2023-05-19T10:39:02.922Z,1.3
2023-05-19T10:40:03.332Z,0.8
2023-05-19T10:41:03.845Z,2.2
2023-05-19T10:42:01.624Z,3
2023-05-19T10:43:02.118Z,2.12
2023-05-19T10:44:01.554Z,2.4
2023-05-19T10:45:03.698Z,2.32
2023-05-19T10:46:01.458Z,3.41
2023-05-19T10:47:03.610Z,1.28
2023-05-19T10:48:01.455Z,1.39
2023-05-19T10:49:03.469Z,2.6
2023-05-19T10:50:02.981Z,2.54
2023-05-19T10:51:03.378Z,1
2023-05-19T10:52:02.223Z,3.16
2023-05-19T10:53:01.666Z,1.52
2023-05-19T10:54:02.116Z,2.28
2023-05-19T10:55:01.558Z,2.72
2023-05-19T10:56:02.061Z,1.76
2023-05-19T10:57:01.488Z,2.35
2023-05-19T10:58:01.953Z,1.04
2023-05-19T10:59:03.022Z,1.58
2023-05-19T11:00:03.482Z,0.88
2023-05-19T11:01:02.925Z,2.93
2023-05-19T11:02:03.521Z,1.96
2023-05-19T11:03:03.829Z,1.88
2023-05-19T11:04:01.720Z,0.96
2023-05-19T11:05:03.694Z,3.52
2023-05-19T11:06:03.126Z,2.54
2023-05-19T11:07:01.944Z,2.6
2023-05-19T11:08:01.361Z,2.5
2023-05-19T11:09:01.872Z,2.12
2023-05-19T11:10:01.301Z,1.97
2023-05-19T11:11:01.794Z,1.04
2023-05-19T11:12:02.794Z,0.72
2023-05-19T11:13:03.304Z,2.56
2023-05-19T11:14:02.165Z,1.92
2023-05-19T11:15:01.651Z,1.92
2023-05-19T11:16:02.080Z,1.76
2023-05-19T11:17:01.624Z,2.21
2023-05-19T11:18:03.730Z,2.68
2023-05-19T11:19:03.108Z,2.06
2023-05-19T11:20:01.925Z,1.48
2023-05-19T11:21:01.473Z,1.34
2023-05-19T11:22:01.861Z,2.16
2023-05-19T11:23:01.319Z,2.59
2023-05-19T11:24:03.476Z,0.52
2023-05-19T11:25:02.243Z,1.16
2023-05-19T11:26:03.338Z,1.56
2023-05-19T11:27:03.787Z,0.84
2023-05-19T11:28:03.218Z,0.1
2023-05-19T11:29:02.031Z,1.96
2023-05-19T11:30:01.490Z,2.3
2023-05-19T11:31:01.928Z,1.88
2023-05-19T11:32:01.427Z,1.58
2023-05-19T11:33:01.917Z,1.64
2023-05-19T11:34:01.272Z,1.34
2023-05-19T11:35:03.406Z,1.36
2023-05-19T11:36:03.858Z,0.8
2023-05-19T11:37:03.276Z,0.91
2023-05-19T11:38:02.077Z,1.92
2023-05-19T11:39:01.542Z,2.16
2023-05-19T11:40:03.676Z,2.24
2023-05-19T11:41:01.458Z,1.49
2023-05-19T11:42:01.935Z,2.72
2023-05-19T11:43:03.026Z,1.39
2023-05-19T11:44:01.858Z,1.52
2023-05-19T11:45:02.975Z,1.97
2023-05-19T11:46:03.442Z,2.12
2023-05-19T11:47:02.798Z,3.28
2023-05-19T11:48:03.622Z,2.16
2023-05-19T11:49:03.686Z,1.8
2023-05-19T11:50:03.150Z,2.06
2023-05-19T11:51:01.947Z,2.24
2023-05-19T11:52:01.429Z,1.73
2023-05-19T11:53:02.036Z,1.52
2023-05-19T11:54:02.959Z,2.26
2023-05-19T11:55:01.796Z,2.08
2023-05-19T11:56:03.897Z,1.76
2023-05-19T11:57:03.366Z,2.21
2023-05-19T11:58:05.234Z,1.96
2023-05-19T11:59:03.225Z,1.34
2023-05-19T12:00:02.079Z,2.16
2023-05-19T12:01:03.195Z,2.06
2023-05-19T12:02:02.040Z,2.72
2023-05-19T12:03:01.601Z,3.02
2023-05-19T12:04:03.621Z,1.84
2023-05-19T12:05:01.347Z,2.11
2023-05-19T12:06:03.511Z,2.92
2023-05-19T12:07:01.304Z,2.21
2023-05-19T12:08:01.732Z,2.4
2023-05-19T12:09:02.165Z,1.88
2023-05-19T12:10:03.281Z,1.2
2023-05-19T12:11:03.736Z,1.64
2023-05-19T12:12:03.215Z,1.78
2023-05-19T12:13:01.989Z,2.2
2023-05-19T12:14:01.489Z,3.74
2023-05-19T12:15:03.588Z,2.12
2023-05-19T12:16:03.050Z,1.49
2023-05-19T12:17:01.874Z,1.88
2023-05-19T12:18:02.959Z,1.58
2023-05-19T12:19:03.441Z,2.11
2023-05-19T12:20:03.860Z,3.32
2023-05-19T12:21:03.292Z,2.45
2023-05-19T12:22:03.977Z,1.76
2023-05-19T12:23:01.573Z,2.45
2023-05-19T12:24:03.266Z,2.08
2023-05-19T12:25:01.577Z,4.22
2023-05-19T12:26:03.667Z,2.6
2023-05-19T12:27:03.164Z,1.87
2023-05-19T12:28:01.926Z,1.52
2023-05-19T12:29:01.392Z,1.54
2023-05-19T12:30:01.874Z,2.5
2023-05-19T12:31:02.984Z,3.07
2023-05-19T12:32:03.566Z,3.46
2023-05-19T12:33:02.397Z,2.72
2023-05-19T12:34:01.711Z,2.3
2023-05-19T12:35:02.185Z,3.16
2023-05-19T12:36:01.667Z,3.89
2023-05-19T12:37:02.116Z,2.08
2023-05-19T12:38:01.609Z,3.55
2023-05-19T12:39:02.049Z,2.72
2023-05-19T12:40:03.157Z,3.12
2023-05-19T12:41:01.964Z,3.68
2023-05-19T12:42:03.058Z,2.21
2023-05-19T12:43:01.894Z,3.22
2023-05-19T12:44:01.309Z,2.06
2023-05-19T12:45:03.324Z,1.78
2023-05-19T12:46:01.295Z,2.88
2023-05-19T12:47:03.380Z,2.83
2023-05-19T12:48:02.264Z,3.4
2023-05-19T12:49:03.318Z,1.34
2023-05-19T12:50:03.739Z,2.08
2023-05-19T12:51:03.215Z,2.35
2023-05-19T12:52:03.858Z,2.64
2023-05-19T12:53:03.133Z,3.79
2023-05-19T12:54:01.924Z,3.02
2023-05-19T12:55:03.141Z,2.93
2023-05-19T12:56:01.869Z,1.06
2023-05-19T12:57:01.311Z,2.16
2023-05-19T12:58:03.422Z,2.98
2023-05-19T12:59:02.222Z,1.96
2023-05-19T13:00:02.309Z,2.93
2023-05-19T13:01:02.233Z,1.88
2023-05-19T13:02:01.658Z,2.21
2023-05-19T13:03:02.354Z,3.16
2023-05-19T13:04:03.377Z,2.16
2023-05-19T13:05:03.608Z,0.96
2023-05-19T13:06:03.095Z,1.25
2023-05-19T13:07:01.947Z,1.54
2023-05-19T13:08:01.377Z,2.06
2023-05-19T13:09:01.861Z,1.68
2023-05-19T13:10:01.320Z,2.83
2023-05-19T13:11:01.772Z,3.36
2023-05-19T13:13:03.329Z,4.51
2023-05-19T13:14:02.159Z,2
2023-05-19T13:15:01.657Z,2.78
2023-05-19T13:16:02.090Z,3.32
2023-05-19T13:17:03.277Z,3.41
2023-05-19T13:18:02.155Z,3.79
2023-05-19T13:19:03.347Z,1.68
2023-05-19T13:20:03.672Z,1.73
2023-05-19T13:21:03.204Z,2.98
2023-05-19T13:22:03.593Z,1.97
2023-05-19T13:23:03.109Z,1.39
2023-05-19T13:24:01.891Z,2.59
2023-05-19T13:25:03.050Z,2.88
2023-05-19T13:26:03.432Z,2.5
2023-05-19T13:27:02.932Z,1.44
2023-05-19T13:28:01.757Z,2.98
2023-05-19T13:29:03.886Z,2.48
2023-05-19T13:30:01.797Z,2.5
2023-05-19T13:31:03.927Z,1.76
2023-05-19T13:32:01.764Z,3.12
2023-05-19T13:33:03.860Z,3.26
2023-05-19T13:34:01.569Z,2.74
2023-05-19T13:35:03.664Z,1.01
2023-05-19T13:36:01.476Z,3.26
2023-05-19T13:37:03.633Z,2.4
2023-05-19T13:38:01.366Z,2.16
2023-05-19T13:39:01.840Z,1.58
2023-05-19T13:40:01.303Z,2.35
2023-05-19T13:41:01.790Z,2.5
2023-05-19T13:42:02.934Z,2.59
2023-05-19T13:43:03.356Z,2.02
2023-05-19T13:44:02.212Z,1.97
2023-05-19T13:45:01.647Z,2.4
2023-05-19T13:46:03.857Z,3.31
2023-05-19T13:47:01.597Z,2.3
2023-05-19T13:48:02.143Z,3.7
2023-05-19T13:49:03.121Z,2.16
2023-05-19T13:50:03.554Z,3.22
2023-05-19T13:51:02.992Z,1.58
2023-05-19T13:52:01.815Z,2.4
2023-05-19T13:54:01.783Z,2.16
2023-05-19T13:55:03.879Z,3.41
2023-05-19T13:56:03.295Z,1.51
2023-05-19T13:57:03.816Z,1.58
2023-05-19T13:58:01.584Z,2.88
2023-05-19T13:59:03.736Z,1.92
2023-05-19T14:00:03.731Z,3.26
2023-05-19T14:01:03.604Z,2.74
2023-05-19T14:02:03.243Z,1.54
2023-05-19T14:03:03.614Z,1.63
2023-05-19T14:04:03.114Z,1.73
2023-05-19T14:05:03.459Z,2.93
2023-05-19T14:07:03.423Z,3.07
2023-05-19T14:08:03.816Z,3.5
2023-05-19T14:09:03.343Z,2.93
2023-05-19T14:10:03.928Z,1.68
2023-05-19T14:11:01.543Z,1.73
2023-05-19T14:12:03.661Z,2.26
2023-05-19T14:14:03.518Z,1.73
2023-05-19T14:15:01.341Z,1.1